createdAt,value
2023-02-07T00:01:19.277Z,4.18
2023-02-07T00:03:47.621Z,3.97
2023-02-07T00:06:20.953Z,4.20
2023-02-07T00:08:48.273Z,4.30
2023-02-07T00:11:17.811Z,4.07
2023-02-07T00:13:45.118Z,4.40
2023-02-07T00:16:12.141Z,4.63
2023-02-07T00:18:39.308Z,3.75
2023-02-07T00:21:09.886Z,4.05
2023-02-07T00:23:38.272Z,4.45
2023-02-07T00:26:07.417Z,4.63
2023-02-07T00:28:34.977Z,4.70
2023-02-07T00:31:12.895Z,5.15
2023-02-07T00:33:41.576Z,5.25
2023-02-07T00:36:13.266Z,4.80
2023-02-07T00:38:40.294Z,5.70
2023-02-07T00:41:07.273Z,5.35
2023-02-07T00:43:34.038Z,5.65
2023-02-07T00:46:02.791Z,6.32
2023-02-07T00:48:30.607Z,5.32
2023-02-07T00:50:58.199Z,4.88
2023-02-07T00:53:26.104Z,5.15
2023-02-07T00:55:53.536Z,4.95
2023-02-07T00:58:20.821Z,5.22
2023-02-07T01:00:47.685Z,5.30
2023-02-07T01:03:14.676Z,5.57
2023-02-07T01:05:41.489Z,5.15
2023-02-07T01:08:08.638Z,5.55
2023-02-07T01:10:36.288Z,5.68
2023-02-07T01:13:03.121Z,5.93
2023-02-07T01:15:29.874Z,5.75
2023-02-07T01:17:56.622Z,5.85
2023-02-07T01:20:23.470Z,6.07
2023-02-07T01:22:50.280Z,5.60
2023-02-07T01:25:17.047Z,5.70
2023-02-07T01:27:43.812Z,5.80
2023-02-07T01:30:11.357Z,5.70
2023-02-07T01:32:38.193Z,5.28
2023-02-07T01:35:05.137Z,5.80
2023-02-07T01:37:31.870Z,5.95
2023-02-07T01:39:58.595Z,5.95
2023-02-07T01:42:27.638Z,5.75
2023-02-07T01:44:54.286Z,6.13
2023-02-07T01:47:23.530Z,5.88
2023-02-07T01:49:54.488Z,5.80
2023-02-07T01:52:27.804Z,5.95
2023-02-07T01:55:00.730Z,5.88
2023-02-07T01:57:27.850Z,6.22
2023-02-07T01:59:57.127Z,5.68
2023-02-07T02:02:26.646Z,5.97
2023-02-07T02:04:55.218Z,6.18
2023-02-07T02:07:24.102Z,6.75
2023-02-07T02:09:51.190Z,7.10
2023-02-07T02:13:02.197Z,5.75
2023-02-07T02:15:59.578Z,6.85
2023-02-07T02:18:44.675Z,6.72
2023-02-07T02:21:23.370Z,7.18
2023-02-07T02:24:27.032Z,6.38
2023-02-07T02:27:17.274Z,6.65
2023-02-07T02:29:50.034Z,6.07
2023-02-07T02:32:55.712Z,7.50
2023-02-07T02:35:28.249Z,6.30
2023-02-07T02:38:18.889Z,7.05
2023-02-07T02:41:03.195Z,6.63
2023-02-07T02:43:46.281Z,8.02
2023-02-07T02:46:16.601Z,8.45
2023-02-07T02:51:11.042Z,7.93
2023-02-07T02:53:37.820Z,8.45
2023-02-07T02:56:46.758Z,7.75
2023-02-07T02:59:35.566Z,7.68
2023-02-07T03:02:20.509Z,7.50
2023-02-07T03:05:07.666Z,8.70
2023-02-07T03:07:42.151Z,8.70
2023-02-07T03:10:14.720Z,7.25
2023-02-07T03:12:57.986Z,8.55
2023-02-07T03:15:27.420Z,7.72
2023-02-07T03:18:03.802Z,8.90
2023-02-07T03:20:45.672Z,7.85
2023-02-07T03:23:14.590Z,8.27
2023-02-07T03:25:42.421Z,8.77
2023-02-07T03:28:11.157Z,8.40
2023-02-07T03:30:39.128Z,7.63
2023-02-07T03:33:11.631Z,8.20
2023-02-07T03:35:47.293Z,8.52
2023-02-07T03:38:14.463Z,8.40
2023-02-07T03:40:51.793Z,8.00
2023-02-07T03:43:28.185Z,7.40
2023-02-07T03:45:55.662Z,8.02
2023-02-07T03:48:22.664Z,8.45
2023-02-07T03:50:51.937Z,7.25
2023-02-07T03:53:20.028Z,7.93
2023-02-07T03:55:46.814Z,7.90
2023-02-07T03:58:13.638Z,7.72
2023-02-07T04:00:40.452Z,7.93
2023-02-07T04:03:07.235Z,7.93
2023-02-07T04:05:34.139Z,7.28
2023-02-07T04:08:01.073Z,7.78
2023-02-07T04:10:27.824Z,7.97
2023-02-07T04:12:54.543Z,7.57
2023-02-07T04:15:21.586Z,8.30
2023-02-07T04:17:48.262Z,8.07
2023-02-07T04:20:15.231Z,7.65
2023-02-07T04:22:41.922Z,7.45
2023-02-07T04:25:08.803Z,7.30
2023-02-07T04:27:35.521Z,7.18
2023-02-07T04:30:02.260Z,7.43
2023-02-07T04:32:28.968Z,7.65
2023-02-07T04:34:55.735Z,7.00
2023-02-07T04:37:22.433Z,6.90
2023-02-07T04:39:49.197Z,7.65
2023-02-07T04:42:15.944Z,7.63
2023-02-07T04:44:42.662Z,6.90
2023-02-07T04:47:09.363Z,7.03
2023-02-07T04:49:36.165Z,7.57
2023-02-07T04:52:02.890Z,7.43
2023-02-07T04:54:29.593Z,7.03
2023-02-07T04:56:56.460Z,7.30
2023-02-07T04:59:23.144Z,6.88
2023-02-07T05:01:49.850Z,7.32
2023-02-07T05:04:16.560Z,6.45
2023-02-07T05:06:43.300Z,7.00
2023-02-07T05:09:09.967Z,6.95
2023-02-07T05:11:36.782Z,7.38
2023-02-07T05:14:03.850Z,7.72
2023-02-07T05:16:30.639Z,8.20
2023-02-07T05:18:57.397Z,7.90
2023-02-07T05:21:24.172Z,7.80
2023-02-07T05:23:50.946Z,7.30
2023-02-07T05:26:17.636Z,7.25
2023-02-07T05:28:44.760Z,6.20
2023-02-07T05:31:11.666Z,7.30
2023-02-07T05:33:38.481Z,7.38
2023-02-07T05:36:05.597Z,8.32
2023-02-07T05:38:32.454Z,7.45
2023-02-07T05:40:59.906Z,7.57
2023-02-07T05:43:26.711Z,7.75
2023-02-07T05:45:53.452Z,7.20
2023-02-07T05:48:20.248Z,7.13
2023-02-07T05:50:47.637Z,7.15
2023-02-07T05:53:14.394Z,8.00
2023-02-07T05:55:41.385Z,7.45
2023-02-07T05:58:08.208Z,8.05
2023-02-07T06:00:34.967Z,7.65
2023-02-07T06:03:01.711Z,8.23
2023-02-07T06:05:31.781Z,8.25
2023-02-07T06:10:25.768Z,8.10
2023-02-07T06:12:52.604Z,8.50
2023-02-07T06:15:19.545Z,8.43
2023-02-07T06:17:46.845Z,8.55
2023-02-07T06:20:13.643Z,8.13
2023-02-07T06:22:40.442Z,8.85
2023-02-07T06:25:11.665Z,8.55
2023-02-07T06:27:40.405Z,8.65
2023-02-07T06:30:08.381Z,8.57
2023-02-07T06:32:35.088Z,8.57
2023-02-07T06:35:01.797Z,9.25
2023-02-07T06:37:28.718Z,8.82
2023-02-07T06:39:56.048Z,8.55
2023-02-07T06:42:22.966Z,7.93
2023-02-07T06:44:49.804Z,8.77
2023-02-07T06:47:16.653Z,9.18
2023-02-07T06:49:43.369Z,9.50
2023-02-07T06:52:10.071Z,9.13
2023-02-07T06:54:37.108Z,9.68
2023-02-07T06:57:03.888Z,9.00
2023-02-07T06:59:30.621Z,10.02
2023-02-07T07:01:57.891Z,9.77
2023-02-07T07:04:24.680Z,9.75
2023-02-07T07:06:51.416Z,10.38
2023-02-07T07:09:18.404Z,11.10
2023-02-07T07:11:45.140Z,10.43
2023-02-07T07:14:12.202Z,10.80
2023-02-07T07:16:40.859Z,11.18
2023-02-07T07:19:07.687Z,11.15
2023-02-07T07:21:34.486Z,10.77
2023-02-07T07:24:01.248Z,10.73
2023-02-07T07:26:39.520Z,12.02
2023-02-07T07:29:13.709Z,10.93
2023-02-07T07:31:40.459Z,10.77
2023-02-07T07:34:07.184Z,11.02
2023-02-07T07:36:33.886Z,10.55
2023-02-07T07:39:00.878Z,11.57
2023-02-07T07:41:27.641Z,11.70
2023-02-07T07:43:55.211Z,11.98
2023-02-07T07:46:22.146Z,12.60
2023-02-07T07:48:48.865Z,11.73
2023-02-07T07:51:15.603Z,13.23
2023-02-07T07:53:42.397Z,14.13
2023-02-07T07:56:09.174Z,16.30
2023-02-07T07:58:35.857Z,14.65
2023-02-07T08:01:02.674Z,14.52
2023-02-07T08:03:29.569Z,15.30
2023-02-07T08:05:56.313Z,15.20
2023-02-07T08:08:23.035Z,14.25
2023-02-07T08:10:49.814Z,16.35
2023-02-07T08:13:16.996Z,16.58
2023-02-07T08:15:43.903Z,14.77
2023-02-07T08:18:10.696Z,13.15
2023-02-07T08:20:37.992Z,14.18
2023-02-07T08:23:04.933Z,13.10
2023-02-07T08:25:31.714Z,11.55
2023-02-07T08:27:58.504Z,13.00
2023-02-07T08:30:25.933Z,12.65
2023-02-07T08:32:52.812Z,11.27
2023-02-07T08:35:19.505Z,12.93
2023-02-07T08:37:46.357Z,14.25
2023-02-07T08:40:13.330Z,14.48
2023-02-07T08:42:40.345Z,14.85
2023-02-07T08:45:07.595Z,15.40
2023-02-07T08:47:34.444Z,15.88
2023-02-07T08:50:01.191Z,14.10
2023-02-07T08:52:29.708Z,14.10
2023-02-07T08:54:56.739Z,15.98
2023-02-07T08:57:25.705Z,14.68
2023-02-07T08:59:53.546Z,15.18
2023-02-07T09:02:20.768Z,14.90
2023-02-07T09:04:47.878Z,15.43
2023-02-07T09:07:15.023Z,14.52
2023-02-07T09:09:41.793Z,14.10
2023-02-07T09:12:09.738Z,14.68
2023-02-07T09:14:37.860Z,13.73
2023-02-07T09:17:05.072Z,14.40
2023-02-07T09:19:32.196Z,12.75
2023-02-07T09:21:59.098Z,13.05
2023-02-07T09:24:25.959Z,13.82
2023-02-07T09:26:52.772Z,12.90
2023-02-07T09:29:19.545Z,12.70
2023-02-07T09:31:46.640Z,12.23
2023-02-07T09:34:13.554Z,11.98
2023-02-07T09:36:40.286Z,11.80
2023-02-07T09:39:07.233Z,11.38
2023-02-07T09:41:57.353Z,11.00
2023-02-07T09:44:33.256Z,10.77
2023-02-07T09:47:10.005Z,11.32
2023-02-07T09:49:44.088Z,11.75
2023-02-07T09:52:42.541Z,10.77
2023-02-07T09:55:40.757Z,10.88
2023-02-07T09:58:13.783Z,10.60
2023-02-07T10:00:42.546Z,10.63
2023-02-07T10:03:11.915Z,11.60
2023-02-07T10:06:12.805Z,11.35
2023-02-07T10:08:46.707Z,11.43
2023-02-07T10:11:38.170Z,11.05
2023-02-07T10:14:17.021Z,10.93
2023-02-07T10:17:02.673Z,11.07
2023-02-07T10:19:48.078Z,10.90
2023-02-07T10:22:42.792Z,10.95
2023-02-07T10:25:51.721Z,10.48
2023-02-07T10:28:18.447Z,11.77
2023-02-07T10:30:53.015Z,11.15
2023-02-07T10:33:29.041Z,10.23
2023-02-07T10:35:56.665Z,10.40
2023-02-07T10:38:43.972Z,9.90
2023-02-07T10:41:19.019Z,10.00
2023-02-07T10:43:47.714Z,9.30
2023-02-07T10:46:20.388Z,9.43
2023-02-07T10:48:48.438Z,10.10
2023-02-07T10:51:35.756Z,9.63
2023-02-07T10:54:09.754Z,9.07
2023-02-07T10:57:02.449Z,8.90
2023-02-07T10:59:49.081Z,8.50
2023-02-07T11:02:33.895Z,7.88
2023-02-07T11:05:16.420Z,7.95
2023-02-07T11:08:01.024Z,6.97
2023-02-07T11:10:34.580Z,6.63
2023-02-07T11:13:02.158Z,6.72
2023-02-07T11:15:49.842Z,7.55
2023-02-07T11:18:37.770Z,6.85
2023-02-07T11:21:24.670Z,7.15
2023-02-07T11:23:53.209Z,7.50
2023-02-07T11:26:22.744Z,7.07
2023-02-07T11:28:54.504Z,7.65
2023-02-07T11:31:28.957Z,7.45
2023-02-07T11:34:09.091Z,7.07
2023-02-07T11:36:35.887Z,7.40
2023-02-07T11:39:02.610Z,6.95
2023-02-07T11:41:33.608Z,7.45
2023-02-07T11:44:17.997Z,6.32
2023-02-07T11:46:48.081Z,6.63
2023-02-07T11:49:22.737Z,7.38
2023-02-07T11:51:55.337Z,7.40
2023-02-07T11:54:22.856Z,6.47
2023-02-07T11:56:55.661Z,7.15
2023-02-07T11:59:25.836Z,6.32
2023-02-07T12:01:55.873Z,7.57
2023-02-07T12:04:29.280Z,7.55
2023-02-07T12:07:12.962Z,6.88
2023-02-07T12:10:04.043Z,6.65
2023-02-07T12:12:49.896Z,6.60
2023-02-07T12:16:03.379Z,6.88
2023-02-07T12:18:33.432Z,7.05
2023-02-07T12:21:17.470Z,8.55
2023-02-07T12:23:55.046Z,7.55
2023-02-07T12:26:23.880Z,6.90
2023-02-07T12:29:12.775Z,6.70
2023-02-07T12:32:05.365Z,6.45
2023-02-07T12:34:52.376Z,6.50
2023-02-07T12:37:33.897Z,7.50
2023-02-07T12:40:06.206Z,6.32
2023-02-07T12:42:49.147Z,6.20
2023-02-07T12:45:18.905Z,6.05
2023-02-07T12:48:10.167Z,5.93
2023-02-07T12:50:44.686Z,6.65
2023-02-07T12:53:20.349Z,5.35
2023-02-07T12:56:05.837Z,6.13
2023-02-07T12:58:45.846Z,6.35
2023-02-07T13:01:19.219Z,6.50
2023-02-07T13:04:13.774Z,5.60
2023-02-07T13:07:13.155Z,5.72
2023-02-07T13:10:12.732Z,5.22
2023-02-07T13:12:51.293Z,6.07
2023-02-07T13:15:45.716Z,5.50
2023-02-07T13:18:40.583Z,5.43
2023-02-07T13:21:23.024Z,5.97
2023-02-07T13:23:50.535Z,5.30
2023-02-07T13:26:21.980Z,5.70
2023-02-07T13:28:56.159Z,4.50
2023-02-07T13:31:43.429Z,4.55
2023-02-07T13:34:19.959Z,5.20
2023-02-07T13:36:52.431Z,5.75
2023-02-07T13:39:19.952Z,4.75
2023-02-07T13:42:09.835Z,5.50
2023-02-07T13:44:39.517Z,5.05
2023-02-07T13:47:34.029Z,5.30
2023-02-07T13:50:28.601Z,4.88
2023-02-07T13:53:19.929Z,4.60
2023-02-07T13:55:48.311Z,5.20
2023-02-07T13:58:51.527Z,4.72
2023-02-07T14:01:20.912Z,4.10
2023-02-07T14:04:12.277Z,5.38
2023-02-07T14:06:42.808Z,5.53
2023-02-07T14:09:15.446Z,5.55
2023-02-07T14:12:04.023Z,5.40
2023-02-07T14:14:33.868Z,5.25
2023-02-07T14:17:03.627Z,4.93
2023-02-07T14:19:45.588Z,5.07
2023-02-07T14:22:33.740Z,5.30
2023-02-07T14:25:03.436Z,6.13
2023-02-07T14:27:34.911Z,6.15
2023-02-07T14:30:30.875Z,6.53
2023-02-07T14:33:11.758Z,5.85
2023-02-07T14:36:04.186Z,7.43
2023-02-07T14:38:39.828Z,6.82
2023-02-07T14:41:13.486Z,5.03
2023-02-07T14:44:03.311Z,5.13
2023-02-07T14:46:46.776Z,5.18
2023-02-07T14:49:47.442Z,5.00
2023-02-07T14:52:21.998Z,5.28
2023-02-07T14:55:05.879Z,5.03
2023-02-07T14:57:54.330Z,5.88
2023-02-07T15:00:44.184Z,5.03
2023-02-07T15:03:14.593Z,4.93
2023-02-07T15:08:34.966Z,5.10
2023-02-07T15:11:23.030Z,5.75
2023-02-07T15:13:50.173Z,5.80
2023-02-07T15:16:21.106Z,6.32
2023-02-07T15:18:55.469Z,6.00
2023-02-07T15:21:38.713Z,6.35
2023-02-07T15:24:08.750Z,5.82
2023-02-07T15:26:36.314Z,5.95
2023-02-07T15:29:06.143Z,6.32
2023-02-07T15:31:40.453Z,6.22
2023-02-07T15:34:19.157Z,6.10
2023-02-07T15:36:47.356Z,6.38
2023-02-07T15:39:21.175Z,6.65
2023-02-07T15:41:51.071Z,6.43
2023-02-07T15:44:27.760Z,6.82
2023-02-07T15:47:00.498Z,5.80
2023-02-07T15:49:32.089Z,6.97
2023-02-07T15:52:01.829Z,5.80
2023-02-07T15:54:29.086Z,6.75
2023-02-07T15:57:00.306Z,6.55
2023-02-07T15:59:30.789Z,6.30
2023-02-07T16:04:28.745Z,6.78
2023-02-07T16:06:57.767Z,6.43
2023-02-07T16:09:39.956Z,6.80
2023-02-07T16:12:28.767Z,6.65
2023-02-07T16:14:55.469Z,6.65
2023-02-07T16:17:24.491Z,6.60
2023-02-07T16:19:51.884Z,6.43
2023-02-07T16:22:21.520Z,6.65
2023-02-07T16:24:50.880Z,6.28
2023-02-07T16:27:20.555Z,6.35
2023-02-07T16:29:47.516Z,6.70
2023-02-07T16:32:14.656Z,5.50
2023-02-07T16:34:50.437Z,6.68
2023-02-07T16:37:24.544Z,6.95
2023-02-07T16:39:51.191Z,6.47
2023-02-07T16:42:19.655Z,6.47
2023-02-07T16:44:47.461Z,7.00
2023-02-07T16:47:15.193Z,8.48
2023-02-07T16:49:44.238Z,7.07
2023-02-07T16:52:11.131Z,6.55
2023-02-07T16:54:37.978Z,7.57
2023-02-07T16:57:04.952Z,6.55
2023-02-07T16:59:31.758Z,6.28
2023-02-07T17:01:58.525Z,6.03
2023-02-07T17:04:25.424Z,5.53
2023-02-07T17:06:52.259Z,5.85
2023-02-07T17:09:24.309Z,7.40
2023-02-07T17:11:54.618Z,13.05
2023-02-07T17:14:22.156Z,15.23
2023-02-07T17:16:49.382Z,14.07
2023-02-07T17:19:18.788Z,13.05
2023-02-07T17:21:46.891Z,10.98
2023-02-07T17:24:13.945Z,9.90
2023-02-07T17:26:44.401Z,7.78
2023-02-07T17:34:09.053Z,6.95
2023-02-07T17:36:36.417Z,8.13
2023-02-07T17:39:04.009Z,9.88
2023-02-07T17:41:31.465Z,8.63
2023-02-07T17:43:58.289Z,9.05
2023-02-07T17:46:27.523Z,8.65
2023-02-07T17:48:54.708Z,8.82
2023-02-07T17:51:27.083Z,10.27
2023-02-07T17:53:55.905Z,9.35
2023-02-07T17:56:30.802Z,7.55
2023-02-07T17:59:02.669Z,8.52
2023-02-07T18:01:30.738Z,9.27
2023-02-07T18:03:57.595Z,8.27
2023-02-07T18:06:26.542Z,8.35
2023-02-07T18:08:55.614Z,8.15
2023-02-07T18:11:23.061Z,8.63
2023-02-07T18:13:50.179Z,9.20
2023-02-07T18:16:22.294Z,9.05
2023-02-07T18:18:53.550Z,8.73
2023-02-07T18:21:20.992Z,8.43
2023-02-07T18:23:47.729Z,10.88
2023-02-07T18:26:16.220Z,10.07
2023-02-07T18:28:44.105Z,10.68
2023-02-07T18:31:12.951Z,18.95
2023-02-07T18:33:39.899Z,15.63
2023-02-07T18:36:07.615Z,16.88
2023-02-07T18:38:34.464Z,15.40
2023-02-07T18:41:01.176Z,12.43
2023-02-07T18:43:28.550Z,11.23
2023-02-07T18:45:55.300Z,9.43
2023-02-07T18:48:21.995Z,9.38
2023-02-07T18:50:48.792Z,10.48
2023-02-07T18:53:15.533Z,15.48
2023-02-07T18:55:42.537Z,21.50
2023-02-07T18:58:09.270Z,11.18
2023-02-07T19:00:35.965Z,10.80
2023-02-07T19:03:02.699Z,9.85
2023-02-07T19:05:30.069Z,11.35
2023-02-07T19:07:56.835Z,11.43
2023-02-07T19:10:23.686Z,11.88
2023-02-07T19:12:50.444Z,14.00
2023-02-07T19:15:17.211Z,13.65
2023-02-07T19:17:43.938Z,13.27
2023-02-07T19:20:11.073Z,12.52
2023-02-07T19:22:37.834Z,11.60
2023-02-07T19:25:05.667Z,11.32
2023-02-07T19:27:33.360Z,12.45
2023-02-07T19:30:00.176Z,11.45
2023-02-07T19:32:26.895Z,14.07
2023-02-07T19:34:53.739Z,25.33
2023-02-07T19:37:20.535Z,17.50
2023-02-07T19:39:49.176Z,12.88
2023-02-07T19:42:16.334Z,12.40
2023-02-07T19:44:43.127Z,14.30
2023-02-07T19:47:09.948Z,18.13
2023-02-07T19:49:36.848Z,19.60
2023-02-07T19:52:03.931Z,18.80
2023-02-07T19:54:30.666Z,18.15
2023-02-07T19:56:57.472Z,17.52
2023-02-07T19:59:24.177Z,16.25
2023-02-07T20:01:50.953Z,14.60
2023-02-07T20:04:17.689Z,11.07
2023-02-07T20:06:44.500Z,10.55
2023-02-07T20:09:11.222Z,11.10
2023-02-07T20:11:38.000Z,17.20
2023-02-07T20:14:05.909Z,18.35
2023-02-07T20:16:35.903Z,16.50
2023-02-07T20:19:05.697Z,19.27
2023-02-07T20:21:33.673Z,18.33
2023-02-07T20:24:01.593Z,13.32
2023-02-07T20:26:34.216Z,14.82
2023-02-07T20:29:03.044Z,14.80
2023-02-07T20:31:32.009Z,13.55
2023-02-07T20:33:59.713Z,12.93
2023-02-07T20:36:26.772Z,12.23
2023-02-07T20:38:55.864Z,13.85
2023-02-07T20:41:30.619Z,12.95
2023-02-07T20:44:05.929Z,16.02
2023-02-07T20:46:35.081Z,17.80
2023-02-07T20:49:14.479Z,21.88
2023-02-07T20:51:42.410Z,19.33
2023-02-07T20:54:11.499Z,17.02
2023-02-07T20:56:38.266Z,13.88
2023-02-07T20:59:05.936Z,12.75
2023-02-07T21:01:33.887Z,11.77
2023-02-07T21:04:05.654Z,10.80
2023-02-07T21:06:33.718Z,9.82
2023-02-07T21:09:02.481Z,12.43
2023-02-07T21:11:36.095Z,10.35
2023-02-07T21:14:04.824Z,10.73
2023-02-07T21:16:31.929Z,12.10
2023-02-07T21:18:59.537Z,11.40
2023-02-07T21:21:27.306Z,12.63
2023-02-07T21:23:54.042Z,12.95
2023-02-07T21:26:21.032Z,11.20
2023-02-07T21:28:47.758Z,13.02
2023-02-07T21:31:19.721Z,15.32
2023-02-07T21:33:47.566Z,20.88
2023-02-07T21:36:20.775Z,12.75
2023-02-07T21:38:49.427Z,12.27
2023-02-07T21:41:18.176Z,10.98
2023-02-07T21:43:44.899Z,11.43
2023-02-07T21:46:23.007Z,12.05
2023-02-07T21:48:52.587Z,10.75
2023-02-07T21:51:21.788Z,10.77
2023-02-07T21:53:50.727Z,9.70
2023-02-07T21:56:19.947Z,10.70
2023-02-07T21:58:47.338Z,10.90
2023-02-07T22:01:19.260Z,10.05
2023-02-07T22:03:49.023Z,10.38
2023-02-07T22:06:16.703Z,10.00
2023-02-07T22:08:52.232Z,9.98
2023-02-07T22:11:21.486Z,9.38
2023-02-07T22:13:49.675Z,9.10
2023-02-07T22:16:18.083Z,10.13
2023-02-07T22:18:45.036Z,9.73
2023-02-07T22:21:15.855Z,9.13
2023-02-07T22:23:43.184Z,9.55
2023-02-07T22:26:10.470Z,8.25
2023-02-07T22:28:38.596Z,8.38
2023-02-07T22:31:17.046Z,8.80
2023-02-07T22:33:43.833Z,8.05
2023-02-07T22:36:28.550Z,8.68
2023-02-07T22:38:55.808Z,8.25
2023-02-07T22:41:22.774Z,8.43
2023-02-07T22:43:49.870Z,8.98
2023-02-07T22:46:19.131Z,9.23
2023-02-07T22:48:47.142Z,8.93
2023-02-07T22:51:22.259Z,8.45
2023-02-07T22:53:50.812Z,8.02
2023-02-07T22:56:17.838Z,8.18
2023-02-07T22:58:45.138Z,7.97
2023-02-07T23:01:29.484Z,7.88
2023-02-07T23:03:56.932Z,8.85
2023-02-07T23:06:25.130Z,8.63
2023-02-07T23:08:52.724Z,9.52
2023-02-07T23:11:22.553Z,10.77
2023-02-07T23:13:49.670Z,9.82
2023-02-07T23:16:22.837Z,8.85
2023-02-07T23:18:50.793Z,9.45
2023-02-07T23:21:20.087Z,9.43
2023-02-07T23:23:47.035Z,9.50
2023-02-07T23:26:16.029Z,8.85
2023-02-07T23:28:43.633Z,9.20
2023-02-07T23:31:12.781Z,9.45
2023-02-07T23:33:39.597Z,9.82
2023-02-07T23:36:06.999Z,9.05
2023-02-07T23:38:34.521Z,9.73
2023-02-07T23:41:01.380Z,8.93
2023-02-07T23:43:28.582Z,9.07
2023-02-07T23:45:55.502Z,9.18
2023-02-07T23:48:22.466Z,8.13
2023-02-07T23:50:53.872Z,8.68
2023-02-07T23:53:21.190Z,8.50
2023-02-07T23:55:49.625Z,8.95
2023-02-07T23:58:17.280Z,8.68
